GVSV

São Pedro Airport

São Pedro, Cape Verde
METAR GVSV 120000Z 07019KT 9999 FEW022 23/18 Q1018 NOSIG
Observed Flight Rules
Dec-12 @ 00:00 UTC (42 minutes ago) Visual Flight Rules
Wind Visibility Clouds
70° at 19 knots 10,000+ meters
  • Few at 2,200' AGL
Temperatures Readings
Current 23°C / 73°F
Dewpoint 18°C / 64°F
Humidity 74%
Altimeter 30.06" Hg
Pressure 1018 hPa
Elevation 20
METAR GVSV 120000Z 07019KT 9999 FEW022 23/18 Q1018 NOSIG
Observed Flight Rules
Dec-12 @ 00:00 UTC
(42 minutes ago)
VFR
Wind Visibility
70° at 19 knots 10,000+ meters
Clouds
  • Few at 2,200' AGL
Temperature Dewpoint
23°C / 73°F 18°C / 64°F
Humidity Altimeter Pressure
74% 30.06" Hg 1018 hPa